Time;durP1;ratioP1;P1;durP2;ratioP2;P2;SDS_P1;SDS_P2;PMS_P1;PMS_P2;Temp;Humidity;BMP_temperature;BMP_pressure;BME280_temperature;BME280_humidity;BME280_pressure;Samples;Min_cycle;Max_cycle;Signal;HPM_P1;HPM_P2
2023/06/19 00:02:18;;;;;;;6.03;5.43;;;;;;;;;;5048170;28;20214;-29
2023/06/19 00:04:45;;;;;;;6.68;5.97;;;;;;;;;;5049562;28;20209;-31
2023/06/19 00:07:12;;;;;;;6.50;5.55;;;;;;;;;;5047219;28;20233;-28
2023/06/19 00:09:41;;;;;;;5.60;5.03;;;;;;;;;;5041169;28;20223;-30
2023/06/19 00:12:08;;;;;;;6.82;4.80;;;;;;;;;;5033403;28;20203;-30
2023/06/19 00:14:36;;;;;;;7.03;5.57;;;;;;;;;;5034651;28;20224;-27
2023/06/19 00:17:03;;;;;;;5.57;5.07;;;;;;;;;;5034307;28;20226;-28
2023/06/19 00:19:30;;;;;;;5.65;5.15;;;;;;;;;;5041953;28;20231;-31
2023/06/19 00:21:57;;;;;;;6.45;5.68;;;;;;;;;;5042794;28;20193;-28
2023/06/19 00:24:24;;;;;;;9.07;5.72;;;;;;;;;;5031679;28;20237;-28
2023/06/19 00:26:53;;;;;;;6.30;5.30;;;;;;;;;;5040791;28;20204;-29
2023/06/19 00:29:20;;;;;;;5.47;4.93;;;;;;;;;;5039454;28;20222;-30
2023/06/19 00:31:47;;;;;;;4.95;4.55;;;;;;;;;;5034724;28;20206;-30
2023/06/19 00:34:14;;;;;;;5.68;5.07;;;;;;;;;;5046275;28;20205;-29
2023/06/19 00:36:41;;;;;;;7.65;5.03;;;;;;;;;;5033938;28;20221;-29
2023/06/19 00:39:09;;;;;;;6.40;5.68;;;;;;;;;;5034062;28;20231;-26
2023/06/19 00:41:36;;;;;;;8.90;5.70;;;;;;;;;;5031291;28;20214;-28
2023/06/19 00:44:05;;;;;;;5.43;4.93;;;;;;;;;;5043715;28;20201;-30
2023/06/19 00:46:32;;;;;;;10.63;5.50;;;;;;;;;;5048537;28;20196;-30
2023/06/19 00:48:59;;;;;;;6.05;5.53;;;;;;;;;;5039371;28;20223;-32
2023/06/19 00:51:26;;;;;;;6.80;5.35;;;;;;;;;;5035806;28;20201;-31
2023/06/19 00:53:54;;;;;;;10.43;5.65;;;;;;;;;;5034190;28;20232;-31
2023/06/19 00:56:21;;;;;;;6.35;5.75;;;;;;;;;;5044116;28;20221;-33
2023/06/19 00:58:48;;;;;;;7.00;5.70;;;;;;;;;;5049314;28;20306;-31
2023/06/19 01:01:16;;;;;;;5.72;5.13;;;;;;;;;;5038436;28;20203;-33
2023/06/19 01:03:45;;;;;;;6.70;5.97;;;;;;;;;;5030161;28;20212;-30
2023/06/19 01:06:15;;;;;;;6.13;5.53;;;;;;;;;;5046260;28;20195;-27
2023/06/19 01:08:44;;;;;;;6.20;5.60;;;;;;;;;;5036697;28;20233;-30
2023/06/19 01:11:12;;;;;;;5.50;4.85;;;;;;;;;;5042949;28;20234;-29
2023/06/19 01:13:43;;;;;;;6.38;5.10;;;;;;;;;;5050069;28;20206;-29
2023/06/19 01:16:11;;;;;;;6.13;5.50;;;;;;;;;;5050699;28;20230;-31
2023/06/19 01:18:40;;;;;;;5.72;5.22;;;;;;;;;;5037535;28;20229;-28
2023/06/19 01:21:11;;;;;;;5.72;5.22;;;;;;;;;;5040260;28;20216;-28
2023/06/19 01:23:40;;;;;;;6.57;4.93;;;;;;;;;;5034329;28;20245;-29
2023/06/19 01:26:08;;;;;;;5.97;5.38;;;;;;;;;;5049872;28;20724;-30
2023/06/19 01:28:37;;;;;;;5.85;5.35;;;;;;;;;;5049505;28;20219;-30
2023/06/19 01:31:05;;;;;;;5.20;4.80;;;;;;;;;;5034738;28;20520;-29
2023/06/19 01:33:33;;;;;;;6.15;5.55;;;;;;;;;;5033488;28;20204;-27
2023/06/19 01:36:01;;;;;;;5.53;5.03;;;;;;;;;;5037344;28;20221;-29
2023/06/19 01:38:30;;;;;;;6.20;5.22;;;;;;;;;;5034838;28;20218;-30
2023/06/19 01:40:59;;;;;;;5.55;5.05;;;;;;;;;;5040751;28;20277;-33
2023/06/19 01:43:27;;;;;;;6.82;5.47;;;;;;;;;;5049290;28;20206;-31
2023/06/19 01:45:55;;;;;;;7.10;5.30;;;;;;;;;;5030121;28;20197;-28
2023/06/19 01:48:22;;;;;;;6.00;5.07;;;;;;;;;;5040435;28;20224;-27
2023/06/19 01:50:49;;;;;;;5.35;4.85;;;;;;;;;;5041246;28;20204;-29
2023/06/19 01:53:16;;;;;;;6.20;5.60;;;;;;;;;;5040318;28;20212;-29
2023/06/19 01:55:43;;;;;;;6.22;5.60;;;;;;;;;;5037967;28;20232;-29
2023/06/19 01:58:12;;;;;;;6.30;5.45;;;;;;;;;;5047587;28;20231;-28
2023/06/19 02:00:39;;;;;;;6.53;5.93;;;;;;;;;;5048383;28;20295;-30
2023/06/19 02:03:06;;;;;;;6.05;5.45;;;;;;;;;;5039964;28;20192;-29
2023/06/19 02:05:34;;;;;;;8.48;5.18;;;;;;;;;;5033915;28;20209;-31
2023/06/19 02:08:01;;;;;;;5.93;5.32;;;;;;;;;;5036246;28;20204;-33
2023/06/19 02:10:28;;;;;;;5.90;5.30;;;;;;;;;;5029259;28;20593;-27
2023/06/19 02:12:55;;;;;;;6.32;5.72;;;;;;;;;;5036787;28;20288;-29
2023/06/19 02:15:23;;;;;;;6.10;5.25;;;;;;;;;;5049964;28;20586;-29
2023/06/19 02:17:54;;;;;;;7.20;5.40;;;;;;;;;;5036984;28;20223;-30
2023/06/19 02:20:21;;;;;;;5.90;5.30;;;;;;;;;;5043141;28;20289;-29
2023/06/19 02:22:49;;;;;;;6.13;5.55;;;;;;;;;;5025936;28;20208;-31
2023/06/19 02:25:16;;;;;;;7.15;5.63;;;;;;;;;;5033915;28;20193;-29
2023/06/19 02:27:43;;;;;;;8.43;4.85;;;;;;;;;;5043607;28;20200;-28
2023/06/19 02:30:10;;;;;;;5.28;4.88;;;;;;;;;;5029857;28;20227;-28
2023/06/19 02:32:39;;;;;;;7.05;5.70;;;;;;;;;;5027420;28;20215;-30
2023/06/19 02:35:09;;;;;;;6.90;5.50;;;;;;;;;;5041043;28;20200;-29
2023/06/19 02:37:36;;;;;;;6.55;5.95;;;;;;;;;;5031479;28;20220;-28
2023/06/19 02:40:04;;;;;;;5.25;4.78;;;;;;;;;;5029626;28;20313;-30
2023/06/19 02:42:31;;;;;;;7.80;5.32;;;;;;;;;;5037984;28;20273;-32
2023/06/19 02:45:03;;;;;;;5.68;5.18;;;;;;;;;;5049169;28;20206;-28
2023/06/19 02:47:30;;;;;;;5.88;5.28;;;;;;;;;;5037826;28;20199;-31
2023/06/19 02:49:58;;;;;;;6.15;5.60;;;;;;;;;;5031922;28;20220;-28
2023/06/19 02:52:25;;;;;;;6.43;5.82;;;;;;;;;;5047210;28;20206;-27
2023/06/19 02:54:53;;;;;;;6.72;5.38;;;;;;;;;;5030312;28;20212;-31
2023/06/19 02:57:20;;;;;;;6.03;5.43;;;;;;;;;;5032439;28;20569;-30
2023/06/19 02:59:47;;;;;;;6.10;5.50;;;;;;;;;;5033147;28;20216;-29
2023/06/19 03:02:14;;;;;;;6.10;5.50;;;;;;;;;;5039296;28;20209;-27
2023/06/19 03:04:42;;;;;;;6.85;5.72;;;;;;;;;;5041184;28;20211;-29
2023/06/19 03:07:10;;;;;;;7.13;5.50;;;;;;;;;;5040590;28;20253;-30
2023/06/19 03:09:37;;;;;;;5.82;5.22;;;;;;;;;;5048217;28;20236;-31
2023/06/19 03:12:05;;;;;;;5.85;4.90;;;;;;;;;;5032755;28;20212;-27
2023/06/19 03:14:32;;;;;;;5.97;4.70;;;;;;;;;;5032597;28;20204;-27
2023/06/19 03:16:59;;;;;;;6.90;5.78;;;;;;;;;;5032622;28;20246;-29
2023/06/19 03:19:26;;;;;;;6.45;5.38;;;;;;;;;;5042546;28;20306;-29
2023/06/19 03:21:53;;;;;;;6.28;5.60;;;;;;;;;;5040586;28;20208;-30
2023/06/19 03:24:22;;;;;;;5.80;5.28;;;;;;;;;;5033434;28;20201;-28
2023/06/19 03:26:49;;;;;;;6.53;5.30;;;;;;;;;;5032533;28;20220;-30
2023/06/19 03:29:16;;;;;;;5.82;5.32;;;;;;;;;;5035491;28;20227;-30
2023/06/19 03:31:43;;;;;;;8.82;5.45;;;;;;;;;;5035192;28;20519;-31
2023/06/19 03:34:10;;;;;;;6.05;4.45;;;;;;;;;;5034394;28;20200;-32
2023/06/19 03:36:37;;;;;;;5.03;4.60;;;;;;;;;;5036652;28;20221;-30
2023/06/19 03:39:04;;;;;;;5.13;4.13;;;;;;;;;;5037434;28;20240;-28
2023/06/19 03:41:35;;;;;;;5.35;4.22;;;;;;;;;;5044287;28;20199;-30
2023/06/19 03:44:02;;;;;;;10.40;4.65;;;;;;;;;;5042586;28;20646;-29
2023/06/19 03:46:30;;;;;;;8.13;4.78;;;;;;;;;;5035034;28;20267;-30
2023/06/19 03:48:57;;;;;;;4.82;4.20;;;;;;;;;;5041720;28;20234;-28
2023/06/19 03:51:24;;;;;;;4.43;4.07;;;;;;;;;;5038761;28;20195;-29
2023/06/19 03:53:52;;;;;;;4.97;4.07;;;;;;;;;;5038346;28;20204;-30
2023/06/19 03:56:19;;;;;;;4.50;4.10;;;;;;;;;;5034309;28;20222;-27
2023/06/19 03:58:47;;;;;;;4.78;4.35;;;;;;;;;;5034388;28;20615;-28
2023/06/19 04:01:14;;;;;;;4.70;4.30;;;;;;;;;;5034741;28;20211;-30
2023/06/19 04:03:41;;;;;;;6.30;4.05;;;;;;;;;;5044505;28;20203;-29
2023/06/19 04:06:09;;;;;;;5.00;4.60;;;;;;;;;;5039611;28;20209;-28
2023/06/19 04:08:36;;;;;;;4.28;3.90;;;;;;;;;;5044183;28;20229;-33
2023/06/19 04:11:03;;;;;;;4.18;3.78;;;;;;;;;;5053690;28;20203;-28
2023/06/19 04:15:59;;;;;;;4.70;4.30;;;;;;;;;;5009652;28;20629;-28
2023/06/19 04:18:27;;;;;;;5.13;4.63;;;;;;;;;;5007068;28;20233;-31
2023/06/19 04:20:54;;;;;;;4.57;4.03;;;;;;;;;;5034109;28;20212;-29
2023/06/19 04:23:21;;;;;;;4.47;4.07;;;;;;;;;;5026115;28;20544;-29
2023/06/19 04:25:48;;;;;;;5.13;4.57;;;;;;;;;;5015310;28;20219;-34
2023/06/19 04:28:15;;;;;;;5.00;4.50;;;;;;;;;;5020384;28;20204;-31
2023/06/19 04:30:42;;;;;;;5.13;4.45;;;;;;;;;;5014481;28;20223;-32
2023/06/19 04:33:11;;;;;;;5.20;4.70;;;;;;;;;;5017215;28;20199;-31
2023/06/19 04:35:39;;;;;;;6.88;4.55;;;;;;;;;;5027087;28;20206;-33
2023/06/19 04:38:07;;;;;;;5.57;4.22;;;;;;;;;;5022621;28;20283;-30
2023/06/19 04:40:34;;;;;;;5.28;4.32;;;;;;;;;;5022635;28;20210;-34
2023/06/19 04:43:02;;;;;;;5.00;3.75;;;;;;;;;;5026343;28;20197;-31
2023/06/19 04:45:29;;;;;;;4.20;3.83;;;;;;;;;;5036123;28;20261;-31
2023/06/19 04:47:56;;;;;;;5.32;4.28;;;;;;;;;;5025578;28;20212;-33
2023/06/19 04:50:24;;;;;;;4.50;4.10;;;;;;;;;;5020432;28;20669;-29
2023/06/19 04:52:52;;;;;;;4.00;3.70;;;;;;;;;;5030589;28;20217;-32
2023/06/19 04:55:19;;;;;;;5.90;4.03;;;;;;;;;;5022776;28;20214;-29
2023/06/19 04:57:46;;;;;;;7.82;3.92;;;;;;;;;;5012717;28;20526;-31
2023/06/19 05:00:14;;;;;;;8.30;3.78;;;;;;;;;;5013810;28;20228;-29
2023/06/19 05:02:43;;;;;;;7.72;3.10;;;;;;;;;;5017121;28;20300;-31
2023/06/19 05:05:10;;;;;;;3.60;3.30;;;;;;;;;;5024688;28;20219;-27
2023/06/19 05:07:39;;;;;;;4.05;3.10;;;;;;;;;;5031332;28;20249;-36
2023/06/19 05:10:07;;;;;;;5.97;3.30;;;;;;;;;;5027977;28;20236;-35
2023/06/19 05:12:35;;;;;;;3.50;3.20;;;;;;;;;;5021139;28;20706;-33
2023/06/19 05:15:02;;;;;;;3.40;3.10;;;;;;;;;;5013321;28;20220;-35
2023/06/19 05:17:38;;;;;;;3.47;3.17;;;;;;;;;;5012738;28;20810;-32
2023/06/19 05:20:06;;;;;;;3.80;2.97;;;;;;;;;;5017441;28;20315;-29
2023/06/19 05:22:34;;;;;;;3.45;3.15;;;;;;;;;;5032017;28;20207;-34
2023/06/19 05:25:03;;;;;;;3.50;3.20;;;;;;;;;;5013948;28;20659;-27
2023/06/19 05:27:30;;;;;;;4.15;3.28;;;;;;;;;;5020630;28;20251;-28
2023/06/19 05:29:58;;;;;;;3.55;3.08;;;;;;;;;;5013989;28;20231;-33
2023/06/19 05:32:25;;;;;;;3.63;3.30;;;;;;;;;;5012554;28;20210;-26
2023/06/19 05:34:52;;;;;;;3.75;3.05;;;;;;;;;;5012569;28;20209;-30
2023/06/19 05:37:19;;;;;;;5.72;3.10;;;;;;;;;;5026144;28;20226;-33
2023/06/19 05:39:46;;;;;;;3.40;3.10;;;;;;;;;;5028346;28;20602;-30
2023/06/19 05:42:14;;;;;;;3.50;3.20;;;;;;;;;;5024672;28;20203;-28
2023/06/19 05:44:41;;;;;;;3.30;3.00;;;;;;;;;;5024525;28;20203;-28
2023/06/19 05:47:09;;;;;;;3.22;2.95;;;;;;;;;;5028888;28;20229;-30
2023/06/19 05:49:36;;;;;;;4.05;3.00;;;;;;;;;;5022654;28;20233;-35
2023/06/19 05:52:03;;;;;;;4.05;3.50;;;;;;;;;;5021736;28;20204;-29
2023/06/19 05:54:30;;;;;;;4.50;3.13;;;;;;;;;;5022221;28;20210;-30
2023/06/19 05:56:57;;;;;;;3.00;2.80;;;;;;;;;;5013904;28;20215;-34
2023/06/19 05:59:25;;;;;;;3.05;2.75;;;;;;;;;;5028103;28;20224;-29
2023/06/19 06:01:53;;;;;;;3.17;2.88;;;;;;;;;;5029077;28;20220;-31
2023/06/19 06:04:22;;;;;;;2.80;2.60;;;;;;;;;;5022733;28;20223;-34
2023/06/19 06:06:49;;;;;;;2.65;2.45;;;;;;;;;;5014355;28;20254;-30
2023/06/19 06:09:17;;;;;;;3.58;2.92;;;;;;;;;;5012072;28;20256;-34
2023/06/19 06:11:44;;;;;;;2.72;2.50;;;;;;;;;;5020252;28;20239;-36
2023/06/19 06:14:11;;;;;;;2.95;2.75;;;;;;;;;;5012333;28;20228;-30
2023/06/19 06:16:40;;;;;;;3.03;2.75;;;;;;;;;;5010311;28;20198;-29
2023/06/19 06:19:08;;;;;;;4.75;2.60;;;;;;;;;;5015902;28;20230;-33
2023/06/19 06:21:35;;;;;;;2.67;2.47;;;;;;;;;;5031310;28;20216;-32
2023/06/19 06:24:02;;;;;;;2.60;2.40;;;;;;;;;;5024455;28;20213;-29
2023/06/19 06:26:29;;;;;;;2.90;2.40;;;;;;;;;;5029831;28;20204;-28
2023/06/19 06:28:56;;;;;;;2.90;2.47;;;;;;;;;;5031487;28;20224;-29
2023/06/19 06:31:24;;;;;;;2.67;2.47;;;;;;;;;;5031949;28;20208;-31
2023/06/19 06:33:52;;;;;;;2.25;2.10;;;;;;;;;;5024647;28;20485;-28
2023/06/19 06:36:20;;;;;;;3.45;2.75;;;;;;;;;;5011639;28;20237;-33
2023/06/19 06:38:47;;;;;;;2.33;2.10;;;;;;;;;;5020855;28;20233;-33
2023/06/19 06:41:14;;;;;;;2.72;1.95;;;;;;;;;;5012482;28;20233;-30
2023/06/19 06:43:43;;;;;;;2.58;2.38;;;;;;;;;;5020808;28;20202;-33
2023/06/19 06:46:10;;;;;;;2.65;2.20;;;;;;;;;;5031856;28;20208;-32
2023/06/19 06:48:37;;;;;;;2.45;2.25;;;;;;;;;;5023184;28;20225;-28
2023/06/19 06:51:05;;;;;;;2.58;2.20;;;;;;;;;;5027404;28;20566;-31
2023/06/19 06:53:32;;;;;;;5.47;2.20;;;;;;;;;;5020458;28;20212;-35
2023/06/19 06:56:00;;;;;;;2.72;1.90;;;;;;;;;;5011955;28;20210;-34
2023/06/19 06:58:27;;;;;;;2.13;1.98;;;;;;;;;;5028795;28;20225;-31
2023/06/19 07:00:54;;;;;;;2.90;2.47;;;;;;;;;;5031996;28;20215;-31
2023/06/19 07:03:22;;;;;;;2.10;2.00;;;;;;;;;;5014364;28;20217;-32
2023/06/19 07:05:49;;;;;;;3.45;1.88;;;;;;;;;;5020526;28;20215;-30
2023/06/19 07:08:18;;;;;;;2.50;2.30;;;;;;;;;;5013826;28;20207;-30
2023/06/19 07:10:45;;;;;;;3.05;2.30;;;;;;;;;;5030692;28;20206;-31
2023/06/19 07:13:12;;;;;;;2.78;2.50;;;;;;;;;;5026435;28;20661;-30
2023/06/19 07:15:39;;;;;;;2.20;2.10;;;;;;;;;;5012842;28;20215;-31
2023/06/19 07:18:06;;;;;;;2.38;2.20;;;;;;;;;;5016647;28;20238;-30
2023/06/19 07:20:34;;;;;;;2.60;2.40;;;;;;;;;;5032009;28;20210;-31
2023/06/19 07:23:01;;;;;;;4.65;2.38;;;;;;;;;;5010646;28;20199;-31
2023/06/19 07:25:29;;;;;;;2.75;2.30;;;;;;;;;;5025879;28;20661;-34
2023/06/19 07:27:56;;;;;;;6.28;2.50;;;;;;;;;;5014736;28;20207;-34
2023/06/19 07:30:24;;;;;;;3.50;2.55;;;;;;;;;;5031837;28;20213;-32
2023/06/19 07:32:51;;;;;;;3.25;2.55;;;;;;;;;;5024038;28;20210;-27
2023/06/19 07:35:18;;;;;;;3.03;2.42;;;;;;;;;;5019982;28;20209;-28
2023/06/19 07:37:54;;;;;;;4.18;2.42;;;;;;;;;;5020176;28;20226;-38
2023/06/19 07:40:21;;;;;;;2.70;2.35;;;;;;;;;;5019773;28;20227;-37
2023/06/19 07:42:50;;;;;;;2.65;2.38;;;;;;;;;;5020749;28;20210;-32
2023/06/19 07:45:17;;;;;;;3.80;2.50;;;;;;;;;;5021446;28;20210;-36
2023/06/19 07:47:44;;;;;;;2.75;2.55;;;;;;;;;;5032520;28;20213;-30
2023/06/19 07:50:11;;;;;;;2.22;2.13;;;;;;;;;;5021536;28;20234;-31
2023/06/19 07:52:38;;;;;;;2.47;2.28;;;;;;;;;;5012797;28;20222;-30
2023/06/19 07:55:06;;;;;;;2.30;2.10;;;;;;;;;;5017071;28;20679;-34
2023/06/19 07:57:34;;;;;;;2.40;2.10;;;;;;;;;;5018343;28;20218;-29
2023/06/19 08:00:07;;;;;;;5.00;2.30;;;;;;;;;;5024361;28;20218;-30
2023/06/19 08:02:34;;;;;;;2.70;1.90;;;;;;;;;;5022734;28;20199;-33
2023/06/19 08:05:01;;;;;;;2.05;1.95;;;;;;;;;;5024512;28;20276;-30
2023/06/19 08:07:28;;;;;;;2.20;2.10;;;;;;;;;;5014008;28;20199;-31
2023/06/19 08:09:55;;;;;;;2.10;2.00;;;;;;;;;;5013891;28;20237;-32
2023/06/19 08:12:22;;;;;;;1.90;1.80;;;;;;;;;;5022683;28;20210;-28
2023/06/19 08:14:49;;;;;;;2.33;2.20;;;;;;;;;;5017868;28;20207;-32
2023/06/19 08:17:18;;;;;;;2.35;1.85;;;;;;;;;;5013511;28;20207;-37
2023/06/19 08:19:45;;;;;;;2.30;2.10;;;;;;;;;;5021685;28;20243;-34
2023/06/19 08:22:12;;;;;;;4.50;2.08;;;;;;;;;;5021369;28;20206;-30
2023/06/19 08:24:40;;;;;;;2.03;1.92;;;;;;;;;;5023899;28;20206;-29
2023/06/19 08:27:08;;;;;;;2.30;2.20;;;;;;;;;;5021751;28;20672;-35
2023/06/19 08:29:35;;;;;;;3.10;1.73;;;;;;;;;;5024297;28;20233;-30
2023/06/19 08:32:02;;;;;;;2.38;1.85;;;;;;;;;;5028656;28;20275;-35
2023/06/19 08:34:31;;;;;;;4.10;2.17;;;;;;;;;;5018040;28;20207;-34
2023/06/19 08:36:58;;;;;;;3.10;1.80;;;;;;;;;;5022820;28;20214;-31
2023/06/19 08:39:27;;;;;;;2.22;2.05;;;;;;;;;;5018343;28;20234;-28
2023/06/19 08:41:54;;;;;;;4.10;2.35;;;;;;;;;;5015640;28;20210;-34
2023/06/19 08:44:21;;;;;;;1.92;1.67;;;;;;;;;;5027790;28;20202;-32
2023/06/19 08:46:49;;;;;;;2.38;2.17;;;;;;;;;;5016228;28;20572;-35
2023/06/19 08:49:16;;;;;;;4.45;2.20;;;;;;;;;;5012819;28;20235;-32
2023/06/19 08:51:44;;;;;;;3.10;1.90;;;;;;;;;;5013492;28;20226;-30
2023/06/19 08:54:13;;;;;;;2.50;1.95;;;;;;;;;;5012539;28;20203;-31
2023/06/19 08:56:40;;;;;;;1.80;1.70;;;;;;;;;;5028334;28;20207;-29
2023/06/19 08:59:11;;;;;;;1.45;1.35;;;;;;;;;;5019669;28;20230;-33
2023/06/19 09:01:38;;;;;;;1.58;1.50;;;;;;;;;;5024756;28;20203;-28
2023/06/19 09:04:12;;;;;;;1.70;1.60;;;;;;;;;;5013744;28;20680;-36
2023/06/19 09:06:48;;;;;;;1.60;1.50;;;;;;;;;;5013786;28;20206;-31
2023/06/19 09:09:15;;;;;;;1.73;1.63;;;;;;;;;;5024479;28;20218;-29
2023/06/19 09:12:04;;;;;;;1.70;1.60;;;;;;;;;;5032854;28;20278;-30
2023/06/19 09:14:35;;;;;;;1.63;1.52;;;;;;;;;;5007474;28;20219;-34
2023/06/19 09:17:02;;;;;;;1.95;1.85;;;;;;;;;;5016602;28;20858;-34
2023/06/19 09:19:29;;;;;;;1.75;1.65;;;;;;;;;;5019361;28;20230;-32
2023/06/19 09:22:02;;;;;;;1.90;1.80;;;;;;;;;;5021951;28;20214;-32
2023/06/19 09:24:35;;;;;;;2.38;2.17;;;;;;;;;;5015892;28;20213;-35
2023/06/19 09:27:07;;;;;;;2.08;1.98;;;;;;;;;;5024132;28;20208;-29
2023/06/19 09:29:38;;;;;;;2.10;1.95;;;;;;;;;;5033219;28;20223;-31
2023/06/19 09:32:15;;;;;;;2.40;1.92;;;;;;;;;;5029289;28;20199;-30
2023/06/19 09:34:42;;;;;;;1.83;1.73;;;;;;;;;;5016001;28;20199;-33
2023/06/19 09:37:11;;;;;;;2.05;1.95;;;;;;;;;;5013415;28;20203;-29
2023/06/19 09:39:39;;;;;;;2.13;2.03;;;;;;;;;;5017580;28;20772;-35
2023/06/19 09:42:08;;;;;;;2.40;2.30;;;;;;;;;;5014301;28;20590;-33
2023/06/19 09:44:40;;;;;;;1.95;1.85;;;;;;;;;;5015698;28;20289;-32
2023/06/19 09:47:10;;;;;;;2.13;2.03;;;;;;;;;;5014143;28;20681;-30
2023/06/19 09:49:37;;;;;;;1.83;1.73;;;;;;;;;;5021860;28;20223;-30
2023/06/19 09:52:05;;;;;;;2.38;2.17;;;;;;;;;;5013788;28;20294;-33
2023/06/19 09:54:34;;;;;;;2.53;2.33;;;;;;;;;;5020076;28;20202;-29
2023/06/19 09:57:02;;;;;;;1.92;1.83;;;;;;;;;;5015917;28;20209;-34
2023/06/19 09:59:30;;;;;;;2.05;1.95;;;;;;;;;;5016728;28;20229;-32
2023/06/19 10:01:58;;;;;;;3.00;2.13;;;;;;;;;;5019204;28;20218;-30
2023/06/19 10:04:25;;;;;;;2.50;2.30;;;;;;;;;;5023100;28;20198;-32
2023/06/19 10:06:54;;;;;;;2.10;1.90;;;;;;;;;;5032211;28;20203;-32
2023/06/19 10:09:22;;;;;;;2.40;2.15;;;;;;;;;;5025458;28;20219;-29
2023/06/19 10:11:52;;;;;;;1.98;1.88;;;;;;;;;;5021805;28;20225;-32
2023/06/19 10:16:55;;;;;;;2.88;1.83;;;;;;;;;;5113215;23;20230;-27
2023/06/19 10:19:23;;;;;;;2.45;2.25;;;;;;;;;;5028647;28;20230;-30
2023/06/19 10:21:52;;;;;;;2.08;1.98;;;;;;;;;;5031182;28;20202;-32
2023/06/19 10:24:20;;;;;;;1.90;1.80;;;;;;;;;;5020954;28;20206;-31
2023/06/19 10:26:59;;;;;;;3.55;2.00;;;;;;;;;;5024031;28;20203;-29
2023/06/19 10:29:27;;;;;;;1.80;1.70;;;;;;;;;;5024295;28;20214;-29
2023/06/19 10:31:54;;;;;;;1.90;1.80;;;;;;;;;;5031799;28;20207;-28
2023/06/19 10:34:21;;;;;;;2.22;2.03;;;;;;;;;;5021394;28;20306;-30
2023/06/19 10:36:48;;;;;;;3.28;2.20;;;;;;;;;;5019694;28;20203;-29
2023/06/19 10:39:16;;;;;;;2.35;1.92;;;;;;;;;;5019387;28;20214;-31
2023/06/19 10:41:43;;;;;;;3.28;1.83;;;;;;;;;;5031241;28;20214;-32
2023/06/19 10:44:12;;;;;;;1.90;1.80;;;;;;;;;;5028979;28;20198;-30
2023/06/19 10:46:40;;;;;;;2.15;2.05;;;;;;;;;;5027612;28;20214;-27
2023/06/19 10:49:10;;;;;;;2.95;2.33;;;;;;;;;;5017451;28;20215;-31
2023/06/19 10:51:37;;;;;;;3.17;1.80;;;;;;;;;;5028936;28;20392;-27
2023/06/19 10:54:04;;;;;;;2.35;2.10;;;;;;;;;;5020755;28;20229;-32
2023/06/19 10:56:32;;;;;;;2.15;1.95;;;;;;;;;;5015442;28;20214;-28
2023/06/19 10:58:59;;;;;;;2.88;2.20;;;;;;;;;;5013886;28;20219;-28
2023/06/19 11:01:35;;;;;;;2.40;2.20;;;;;;;;;;5011111;28;20207;-29
2023/06/19 11:04:03;;;;;;;1.83;1.73;;;;;;;;;;5019728;28;20211;-29
2023/06/19 11:06:30;;;;;;;2.30;2.10;;;;;;;;;;5019882;28;20199;-29
2023/06/19 11:08:57;;;;;;;2.17;1.98;;;;;;;;;;5014372;28;20238;-30
2023/06/19 11:11:24;;;;;;;2.10;2.00;;;;;;;;;;5019770;28;20199;-30
2023/06/19 11:13:52;;;;;;;2.10;1.70;;;;;;;;;;5015383;28;20214;-28
2023/06/19 11:16:19;;;;;;;1.88;1.75;;;;;;;;;;5015589;28;20215;-28
2023/06/19 11:18:47;;;;;;;2.45;1.70;;;;;;;;;;5018229;28;20226;-30
2023/06/19 11:21:14;;;;;;;1.80;1.70;;;;;;;;;;5034749;28;20199;-29
2023/06/19 11:23:41;;;;;;;6.35;1.88;;;;;;;;;;5029221;28;20218;-30
2023/06/19 11:26:09;;;;;;;2.08;1.65;;;;;;;;;;5021967;28;20199;-26
2023/06/19 11:28:36;;;;;;;1.90;1.80;;;;;;;;;;5022680;28;20230;-31
2023/06/19 11:31:03;;;;;;;1.70;1.60;;;;;;;;;;5026833;28;20203;-27
2023/06/19 11:33:33;;;;;;;1.95;1.50;;;;;;;;;;5020779;28;20210;-30
2023/06/19 11:36:03;;;;;;;1.95;1.83;;;;;;;;;;5014902;28;20257;-30
2023/06/19 11:38:30;;;;;;;1.85;1.75;;;;;;;;;;5018928;28;20219;-30
2023/06/19 11:41:00;;;;;;;1.60;1.50;;;;;;;;;;5031350;28;20214;-27
2023/06/19 11:43:28;;;;;;;3.47;1.42;;;;;;;;;;5024552;28;20209;-30
2023/06/19 11:45:55;;;;;;;1.88;1.67;;;;;;;;;;5033502;28;20653;-33
2023/06/19 11:48:25;;;;;;;2.63;1.70;;;;;;;;;;5028270;28;20250;-28
2023/06/19 11:50:53;;;;;;;1.75;1.65;;;;;;;;;;5017821;28;20235;-29
2023/06/19 11:53:21;;;;;;;1.50;1.40;;;;;;;;;;5021911;28;20202;-30
2023/06/19 11:55:48;;;;;;;1.40;1.40;;;;;;;;;;5024428;28;20234;-28
2023/06/19 11:58:16;;;;;;;1.67;1.58;;;;;;;;;;5027502;28;20293;-29
2023/06/19 12:00:43;;;;;;;2.20;1.92;;;;;;;;;;5029795;28;20463;-29
2023/06/19 12:03:10;;;;;;;1.98;1.75;;;;;;;;;;5016021;28;20210;-26
2023/06/19 12:05:37;;;;;;;1.90;1.80;;;;;;;;;;5014144;28;20210;-28
2023/06/19 12:08:05;;;;;;;1.70;1.60;;;;;;;;;;5015627;28;20213;-27
2023/06/19 12:10:34;;;;;;;1.70;1.60;;;;;;;;;;5017654;28;20227;-29
2023/06/19 12:13:01;;;;;;;1.80;1.67;;;;;;;;;;5030667;28;20199;-29
2023/06/19 12:15:28;;;;;;;1.92;1.70;;;;;;;;;;5014523;28;20211;-29
2023/06/19 12:17:57;;;;;;;1.77;1.67;;;;;;;;;;5021410;28;20211;-30
2023/06/19 12:20:25;;;;;;;1.45;1.42;;;;;;;;;;5034816;28;20202;-27
2023/06/19 12:22:52;;;;;;;1.92;1.70;;;;;;;;;;5015538;28;20211;-27
2023/06/19 12:25:19;;;;;;;2.00;1.90;;;;;;;;;;5029105;28;20209;-30
2023/06/19 12:27:49;;;;;;;1.73;1.63;;;;;;;;;;5032470;28;20210;-30
2023/06/19 12:30:17;;;;;;;3.05;1.80;;;;;;;;;;5014731;28;20234;-28
2023/06/19 12:32:44;;;;;;;2.00;1.88;;;;;;;;;;5018420;28;20214;-28
2023/06/19 12:35:11;;;;;;;1.50;1.40;;;;;;;;;;5021460;28;20568;-27
2023/06/19 12:37:38;;;;;;;2.25;2.15;;;;;;;;;;5012949;28;20207;-28
2023/06/19 12:40:10;;;;;;;2.00;1.90;;;;;;;;;;5017133;28;20226;-28
2023/06/19 12:42:37;;;;;;;1.70;1.60;;;;;;;;;;5033435;28;20233;-31
2023/06/19 12:45:06;;;;;;;1.77;1.67;;;;;;;;;;5014464;28;20206;-29
2023/06/19 12:47:33;;;;;;;3.03;2.17;;;;;;;;;;5016104;28;20210;-31
2023/06/19 12:50:00;;;;;;;1.90;1.80;;;;;;;;;;5017433;28;20235;-30
2023/06/19 12:52:28;;;;;;;2.00;1.90;;;;;;;;;;5013913;28;20215;-31
2023/06/19 12:54:55;;;;;;;2.10;2.00;;;;;;;;;;5021571;28;20272;-28
2023/06/19 12:57:22;;;;;;;2.65;2.17;;;;;;;;;;5013823;28;20203;-29
2023/06/19 12:59:49;;;;;;;2.67;1.92;;;;;;;;;;5013719;28;20230;-30
2023/06/19 13:02:18;;;;;;;1.95;1.85;;;;;;;;;;5018062;28;20453;-29
2023/06/19 13:04:45;;;;;;;2.88;2.33;;;;;;;;;;5015918;28;20203;-27
2023/06/19 13:07:12;;;;;;;2.42;2.22;;;;;;;;;;5013643;28;20214;-31
2023/06/19 13:09:39;;;;;;;1.85;1.75;;;;;;;;;;5026141;28;20237;-30
2023/06/19 13:12:07;;;;;;;1.80;1.70;;;;;;;;;;5033283;28;20277;-30
2023/06/19 13:14:34;;;;;;;2.00;1.90;;;;;;;;;;5033669;28;20210;-28
2023/06/19 13:17:01;;;;;;;2.30;2.00;;;;;;;;;;5032386;28;20220;-30
2023/06/19 13:19:29;;;;;;;2.38;2.17;;;;;;;;;;5026168;28;20600;-30
2023/06/19 13:21:56;;;;;;;2.33;1.80;;;;;;;;;;5024223;28;20224;-28
2023/06/19 13:24:26;;;;;;;2.72;2.15;;;;;;;;;;5027725;28;20218;-30
2023/06/19 13:26:53;;;;;;;2.15;2.05;;;;;;;;;;5017902;28;20769;-30
2023/06/19 13:29:20;;;;;;;3.40;2.58;;;;;;;;;;5027266;28;20222;-31
2023/06/19 13:31:47;;;;;;;2.10;2.00;;;;;;;;;;5029511;28;20217;-31
2023/06/19 13:34:14;;;;;;;3.88;2.22;;;;;;;;;;5024631;28;20202;-31
2023/06/19 13:36:42;;;;;;;2.30;2.20;;;;;;;;;;5019580;28;20423;-28
2023/06/19 13:39:10;;;;;;;2.05;1.95;;;;;;;;;;5011863;28;20223;-30
2023/06/19 13:41:37;;;;;;;1.90;1.80;;;;;;;;;;5020872;28;20206;-29
2023/06/19 13:44:05;;;;;;;3.38;2.10;;;;;;;;;;5025623;28;20206;-28
2023/06/19 13:46:32;;;;;;;2.05;1.92;;;;;;;;;;5032928;28;20226;-28
2023/06/19 13:49:00;;;;;;;2.10;2.00;;;;;;;;;;5016358;28;20223;-30
2023/06/19 13:51:28;;;;;;;2.13;2.00;;;;;;;;;;5032602;28;20740;-29
2023/06/19 13:53:56;;;;;;;1.90;1.80;;;;;;;;;;5020894;28;20213;-28
2023/06/19 13:56:23;;;;;;;1.92;1.83;;;;;;;;;;5019659;28;20203;-28
2023/06/19 13:58:51;;;;;;;2.00;1.90;;;;;;;;;;5030974;28;20227;-30
2023/06/19 14:01:20;;;;;;;1.95;1.85;;;;;;;;;;5029422;28;20365;-33
2023/06/19 14:03:47;;;;;;;2.70;2.20;;;;;;;;;;5016457;28;20207;-32
2023/06/19 14:06:14;;;;;;;4.18;2.25;;;;;;;;;;5012503;28;20199;-28
2023/06/19 14:08:41;;;;;;;4.13;1.88;;;;;;;;;;5017038;28;20234;-28
2023/06/19 14:11:10;;;;;;;2.25;2.15;;;;;;;;;;5019514;28;20535;-31
2023/06/19 14:13:37;;;;;;;3.00;1.98;;;;;;;;;;5012914;28;20201;-27
2023/06/19 14:16:04;;;;;;;1.98;1.88;;;;;;;;;;5012497;28;20229;-30
2023/06/19 14:18:31;;;;;;;6.00;2.00;;;;;;;;;;5017789;28;20318;-31
2023/06/19 14:20:58;;;;;;;2.75;1.85;;;;;;;;;;5012155;28;20505;-30
2023/06/19 14:23:25;;;;;;;2.13;1.98;;;;;;;;;;5013179;28;20600;-31
2023/06/19 14:25:52;;;;;;;6.53;1.95;;;;;;;;;;5021030;28;20266;-31
2023/06/19 14:28:21;;;;;;;2.35;2.10;;;;;;;;;;5009562;28;20226;-30
2023/06/19 14:30:48;;;;;;;2.20;2.00;;;;;;;;;;5011129;28;20227;-30
2023/06/19 14:33:15;;;;;;;2.53;2.30;;;;;;;;;;5019275;28;20199;-27
2023/06/19 14:35:45;;;;;;;2.35;2.15;;;;;;;;;;5031205;28;20198;-31
2023/06/19 14:38:14;;;;;;;2.63;2.42;;;;;;;;;;5026886;28;20202;-31
2023/06/19 14:40:41;;;;;;;2.35;2.17;;;;;;;;;;5030942;28;20207;-27
2023/06/19 14:43:08;;;;;;;2.88;2.40;;;;;;;;;;5019037;28;20206;-29
2023/06/19 14:45:39;;;;;;;3.13;2.60;;;;;;;;;;5011996;28;20274;-28
2023/06/19 14:48:06;;;;;;;2.30;2.10;;;;;;;;;;5017971;28;20198;-29
2023/06/19 14:50:34;;;;;;;2.47;2.35;;;;;;;;;;5024786;28;20219;-28
2023/06/19 14:53:01;;;;;;;1.85;1.75;;;;;;;;;;5019572;28;20214;-29